createdAt,value
2023-05-22T06:57:43.837Z,5.60
2023-05-22T06:58:04.067Z,5.70
2023-05-22T06:58:14.122Z,6.80
2023-05-22T06:58:24.192Z,6.40
2023-05-22T06:58:34.271Z,6.40
2023-05-22T06:58:44.329Z,5.60
2023-05-22T06:58:54.389Z,5.40
2023-05-22T06:59:06.265Z,5.40
2023-05-22T06:59:14.540Z,5.80
2023-05-22T06:59:24.574Z,5.90
2023-05-22T06:59:34.617Z,5.90
2023-05-22T06:59:44.698Z,5.80
2023-05-22T06:59:54.737Z,6.00
2023-05-22T07:00:04.795Z,6.00
2023-05-22T07:00:14.872Z,5.80
2023-05-22T07:00:24.900Z,5.60
2023-05-22T07:00:35.067Z,5.80
2023-05-22T07:00:45.118Z,6.00
2023-05-22T07:00:55.191Z,6.20
2023-05-22T07:01:05.308Z,6.10
2023-05-22T07:01:15.374Z,5.90
2023-05-22T07:01:25.449Z,5.70
2023-05-22T07:01:35.559Z,5.60
2023-05-22T07:01:45.616Z,5.50
2023-05-22T07:01:55.641Z,5.70
2023-05-22T07:02:05.704Z,5.70
2023-05-22T07:02:15.841Z,6.00
2023-05-22T07:02:25.998Z,6.20
2023-05-22T07:02:36.100Z,7.40
2023-05-22T07:02:46.086Z,7.70
2023-05-22T07:02:56.230Z,7.60
2023-05-22T07:03:06.331Z,6.70
2023-05-22T07:03:16.385Z,6.20
2023-05-22T07:03:26.432Z,5.60
2023-05-22T07:03:36.462Z,5.20
2023-05-22T07:03:46.521Z,5.30
2023-05-22T07:03:56.557Z,5.80
2023-05-22T07:04:06.613Z,5.90
2023-05-22T07:04:16.663Z,6.10
2023-05-22T07:04:26.725Z,6.10
2023-05-22T07:04:36.801Z,6.20
2023-05-22T07:04:46.851Z,6.00
2023-05-22T07:04:56.890Z,6.10
2023-05-22T07:05:06.952Z,6.00
2023-05-22T07:05:17.024Z,6.40
2023-05-22T07:05:27.041Z,6.30
2023-05-22T07:05:37.176Z,6.90
2023-05-22T07:05:47.292Z,7.10
2023-05-22T07:05:57.435Z,7.50
2023-05-22T07:06:07.361Z,7.30
2023-05-22T07:06:17.479Z,7.60
2023-05-22T07:06:27.516Z,7.50
2023-05-22T07:06:37.595Z,7.10
2023-05-22T07:06:47.624Z,6.80
2023-05-22T07:06:57.696Z,6.70
2023-05-22T07:07:07.781Z,6.50
2023-05-22T07:07:17.808Z,6.40
2023-05-22T07:07:27.847Z,6.40
2023-05-22T07:07:37.896Z,6.90
2023-05-22T07:07:47.935Z,7.20
2023-05-22T07:07:57.985Z,7.40
2023-05-22T07:08:08.066Z,7.40
2023-05-22T07:08:18.096Z,7.30
2023-05-22T07:08:30.451Z,7.00
2023-05-22T07:08:38.206Z,6.90
2023-05-22T07:08:48.238Z,6.80
2023-05-22T07:08:58.300Z,6.40
2023-05-22T07:09:45.569Z,6.40
2023-05-22T07:09:55.620Z,6.10
2023-05-22T07:10:05.686Z,6.70
2023-05-22T07:10:15.758Z,6.40
2023-05-22T07:10:25.793Z,6.90
2023-05-22T07:10:35.888Z,6.30
2023-05-22T07:10:45.914Z,6.70
2023-05-22T07:10:55.956Z,6.10
2023-05-22T07:11:06.004Z,6.20
2023-05-22T07:11:16.042Z,5.70
2023-05-22T07:11:26.082Z,5.90
2023-05-22T07:11:36.154Z,5.90
2023-05-22T07:11:46.199Z,5.90
2023-05-22T07:11:56.249Z,6.00
2023-05-22T07:12:06.297Z,5.90
2023-05-22T07:12:16.350Z,6.10
2023-05-22T07:12:26.380Z,5.90
2023-05-22T07:12:36.422Z,6.00
2023-05-22T07:12:46.488Z,6.00
2023-05-22T07:12:56.536Z,6.50
2023-05-22T07:13:06.581Z,6.50
2023-05-22T07:13:16.629Z,7.10
2023-05-22T07:13:26.724Z,7.10
2023-05-22T07:13:36.747Z,7.00
2023-05-22T07:13:46.811Z,6.20
2023-05-22T07:13:56.867Z,6.20
2023-05-22T07:14:06.933Z,6.20
2023-05-22T07:14:16.979Z,6.60
2023-05-22T07:14:27.064Z,6.30
2023-05-22T07:14:37.114Z,6.20
2023-05-22T07:14:47.168Z,6.00
2023-05-22T07:14:57.222Z,6.10
2023-05-22T07:15:07.272Z,5.90
2023-05-22T07:15:18.073Z,6.40
2023-05-22T07:15:27.569Z,6.80
2023-05-22T07:15:37.695Z,7.60
2023-05-22T07:15:47.712Z,7.30
2023-05-22T07:15:57.926Z,6.70
2023-05-22T07:16:07.823Z,6.50
2023-05-22T07:16:27.988Z,7.30
2023-05-22T07:16:38.077Z,7.00
2023-05-22T07:16:48.144Z,7.10
2023-05-22T07:16:58.306Z,6.90
2023-05-22T07:17:08.357Z,7.10
2023-05-22T07:17:18.392Z,6.80
2023-05-22T07:17:28.459Z,6.90
2023-05-22T07:17:38.495Z,6.80
2023-05-22T07:17:48.628Z,7.30
2023-05-22T07:17:58.709Z,7.00
2023-05-22T07:18:08.790Z,6.80
2023-05-22T07:18:18.820Z,6.00
2023-05-22T07:18:28.891Z,5.80
2023-05-22T07:18:38.954Z,5.80
2023-05-22T07:18:49.057Z,5.80
2023-05-22T07:18:59.124Z,6.00
2023-05-22T07:19:09.186Z,6.10
2023-05-22T07:19:19.304Z,7.20
2023-05-22T07:19:29.442Z,18.30
2023-05-22T07:19:39.357Z,51.00
2023-05-22T07:19:49.437Z,94.60
2023-05-22T07:19:59.511Z,102.90
2023-05-22T07:20:09.581Z,107.70
2023-05-22T07:20:19.590Z,90.80
2023-05-22T07:20:29.709Z,73.70
2023-05-22T07:20:39.947Z,44.70
2023-05-22T07:20:49.846Z,26.20
2023-05-22T07:20:59.897Z,32.60
2023-05-22T07:21:09.976Z,33.60
2023-05-22T07:21:20.058Z,32.20
2023-05-22T07:21:30.150Z,29.30
2023-05-22T07:21:40.186Z,28.60
2023-05-22T07:21:50.292Z,38.00
2023-05-22T07:22:00.326Z,57.20
2023-05-22T07:22:10.386Z,67.30
2023-05-22T07:22:20.451Z,75.30
2023-05-22T07:22:30.538Z,145.60
2023-05-22T07:22:40.595Z,200.40
2023-05-22T07:22:50.671Z,227.90
2023-05-22T07:23:00.732Z,182.80
2023-05-22T07:23:10.822Z,164.50
2023-05-22T07:23:20.915Z,198.00
2023-05-22T07:23:30.998Z,214.00
2023-05-22T07:23:41.051Z,210.10
2023-05-22T07:23:51.124Z,174.60
2023-05-22T07:24:01.200Z,156.10
2023-05-22T07:24:11.311Z,128.20
2023-05-22T07:24:21.342Z,92.50
2023-05-22T07:24:31.404Z,58.00
2023-05-22T07:24:41.473Z,38.70
2023-05-22T07:24:51.531Z,24.60
2023-05-22T07:25:02.181Z,16.00
2023-05-22T07:25:11.720Z,11.60
2023-05-22T07:25:21.800Z,7.60
2023-05-22T07:25:31.875Z,6.40
2023-05-22T07:25:41.899Z,6.50
2023-05-22T07:25:51.966Z,6.20
2023-05-22T07:26:12.102Z,6.30
2023-05-22T07:26:22.153Z,6.60
2023-05-22T07:26:32.227Z,6.80
2023-05-22T07:26:42.272Z,6.60
2023-05-22T07:26:52.327Z,6.40
2023-05-22T07:27:02.411Z,6.20
2023-05-22T07:27:12.477Z,6.20
2023-05-22T07:27:22.530Z,6.00
2023-05-22T07:27:32.641Z,5.90
2023-05-22T07:27:42.653Z,5.60
2023-05-22T07:27:52.716Z,5.80
2023-05-22T07:28:02.777Z,5.80
2023-05-22T07:28:12.846Z,5.80
2023-05-22T07:28:22.904Z,6.00
2023-05-22T07:28:32.951Z,6.10
2023-05-22T07:28:43.010Z,15.40
2023-05-22T07:28:53.124Z,153.50
2023-05-22T07:29:03.220Z,381.90
2023-05-22T07:29:13.374Z,614.70
2023-05-22T07:29:23.493Z,664.00
2023-05-22T07:29:33.519Z,507.10
2023-05-22T07:29:43.616Z,353.20
2023-05-22T07:29:53.694Z,316.20
2023-05-22T07:30:03.794Z,425.40
2023-05-22T07:30:13.855Z,502.60
2023-05-22T07:30:23.834Z,623.90
2023-05-22T07:30:34.018Z,809.60
2023-05-22T07:30:44.068Z,999.90
2023-05-22T07:30:54.164Z,999.90
2023-05-22T07:31:04.236Z,999.90
2023-05-22T07:31:14.337Z,999.90
2023-05-22T07:31:24.427Z,999.90
2023-05-22T07:31:34.607Z,999.90
2023-05-22T07:31:44.578Z,999.90
2023-05-22T07:31:54.694Z,999.90
2023-05-22T07:32:04.781Z,951.80
2023-05-22T07:32:14.814Z,815.40
2023-05-22T07:32:24.962Z,703.40
2023-05-22T07:32:35.072Z,614.20
2023-05-22T07:32:45.132Z,502.40
2023-05-22T07:32:55.253Z,353.00
2023-05-22T07:33:05.361Z,386.70
2023-05-22T07:33:15.440Z,370.70
2023-05-22T07:33:25.506Z,318.30
2023-05-22T07:33:35.572Z,180.20
2023-05-22T07:33:45.694Z,54.50
2023-05-22T07:33:55.644Z,28.90
2023-05-22T07:34:05.676Z,17.50
2023-05-22T07:34:15.762Z,12.70
2023-05-22T07:34:26.886Z,9.40
2023-05-22T07:34:35.909Z,7.50
2023-05-22T07:34:45.978Z,6.60
2023-05-22T07:34:56.033Z,6.30
2023-05-22T07:35:06.091Z,6.10
2023-05-22T07:35:16.136Z,6.00
2023-05-22T07:35:26.147Z,6.00
2023-05-22T07:35:36.159Z,5.80
2023-05-22T07:35:46.145Z,5.80
2023-05-22T07:35:56.312Z,5.50
2023-05-22T07:36:06.360Z,5.80
2023-05-22T07:36:16.355Z,5.50
2023-05-22T07:36:26.340Z,6.10
2023-05-22T07:36:36.553Z,6.30
2023-05-22T07:36:46.554Z,6.80
2023-05-22T07:36:56.608Z,6.70
2023-05-22T07:37:06.666Z,6.60
2023-05-22T07:37:16.717Z,6.40
2023-05-22T07:37:26.723Z,6.40
2023-05-22T07:37:36.733Z,6.40
2023-05-22T07:37:46.816Z,7.10
2023-05-22T07:37:56.871Z,7.20
2023-05-22T07:38:06.931Z,7.30
2023-05-22T07:38:16.976Z,6.30
2023-05-22T07:38:27.028Z,5.40
2023-05-22T07:38:37.059Z,5.00
2023-05-22T07:38:47.100Z,5.40
2023-05-22T07:38:57.148Z,5.70
2023-05-22T07:39:07.179Z,5.80
2023-05-22T07:39:17.221Z,6.00
2023-05-22T07:39:27.256Z,6.30
2023-05-22T07:39:37.294Z,5.90
2023-05-22T07:39:47.332Z,5.50
2023-05-22T07:39:57.381Z,5.40
2023-05-22T07:40:07.451Z,5.70
2023-05-22T07:40:17.479Z,6.00
2023-05-22T07:40:27.596Z,5.70
2023-05-22T07:40:37.869Z,5.40
2023-05-22T07:40:47.652Z,5.20
2023-05-22T07:40:57.709Z,5.60
2023-05-22T07:41:07.812Z,6.20
2023-05-22T07:41:17.903Z,6.10
2023-05-22T07:41:28.018Z,5.70
2023-05-22T07:41:38.062Z,5.30
2023-05-22T07:41:48.141Z,5.80
2023-05-22T07:41:59.441Z,6.00
2023-05-22T07:42:08.350Z,6.00
2023-05-22T07:42:18.419Z,6.10
2023-05-22T07:42:28.475Z,6.70
2023-05-22T07:42:38.573Z,6.70
2023-05-22T07:42:48.617Z,6.60
2023-05-22T07:42:58.657Z,6.10
2023-05-22T07:43:08.689Z,6.20
2023-05-22T07:43:18.791Z,6.30
2023-05-22T07:43:28.876Z,6.50
2023-05-22T07:43:38.923Z,6.60
2023-05-22T07:43:48.994Z,6.60
2023-05-22T07:43:59.070Z,6.10
2023-05-22T07:44:09.118Z,5.90
2023-05-22T07:44:19.173Z,5.50
2023-05-22T07:44:29.221Z,5.80
2023-05-22T07:44:39.293Z,5.70
2023-05-22T07:44:49.354Z,5.40
2023-05-22T07:44:59.397Z,5.40
2023-05-22T07:45:09.452Z,5.70
2023-05-22T07:45:19.541Z,5.70
2023-05-22T07:45:29.631Z,5.80
2023-05-22T07:45:39.910Z,6.00
2023-05-22T07:45:49.780Z,6.50
2023-05-22T07:45:59.940Z,6.30
2023-05-22T07:46:10.003Z,6.20
2023-05-22T07:46:20.083Z,6.30
2023-05-22T07:46:30.182Z,6.10
2023-05-22T07:46:40.266Z,7.70
2023-05-22T07:46:50.306Z,8.30
2023-05-22T07:47:00.365Z,9.60
2023-05-22T07:47:10.411Z,10.00
2023-05-22T07:47:20.532Z,10.60
2023-05-22T07:47:30.601Z,10.30
2023-05-22T07:47:40.644Z,8.90
2023-05-22T07:47:50.731Z,7.70
2023-05-22T07:48:00.871Z,7.50
2023-05-22T07:48:10.960Z,7.70
2023-05-22T07:48:20.970Z,8.60
2023-05-22T07:48:31.023Z,9.50
2023-05-22T07:48:41.084Z,10.10
2023-05-22T07:48:51.147Z,9.70
2023-05-22T07:49:01.194Z,9.00
2023-05-22T07:49:11.248Z,8.50
2023-05-22T07:49:21.365Z,8.50
2023-05-22T07:49:31.397Z,7.90
2023-05-22T07:49:41.486Z,7.40
2023-05-22T07:49:51.575Z,6.80
2023-05-22T07:50:01.613Z,6.70
2023-05-22T07:50:11.659Z,6.90
2023-05-22T07:50:21.708Z,7.20
2023-05-22T07:50:31.751Z,7.00
2023-05-22T07:50:41.799Z,6.50
2023-05-22T07:50:51.854Z,5.80
2023-05-22T07:51:01.909Z,6.10
2023-05-22T07:51:11.945Z,6.90
2023-05-22T07:51:22.007Z,7.70
2023-05-22T07:51:32.074Z,7.60
2023-05-22T07:51:42.117Z,7.40
2023-05-22T07:51:52.193Z,6.90
2023-05-22T07:52:02.229Z,7.20
2023-05-22T07:52:12.267Z,7.10
2023-05-22T07:52:22.302Z,7.20
2023-05-22T07:52:32.381Z,6.40
2023-05-22T07:52:42.511Z,6.00
2023-05-22T07:52:52.560Z,6.20
2023-05-22T07:53:02.600Z,6.90
2023-05-22T07:53:12.665Z,7.20
2023-05-22T07:53:22.769Z,7.20
2023-05-22T07:53:32.826Z,7.20
2023-05-22T07:53:42.860Z,7.10
2023-05-22T07:53:52.905Z,7.30
2023-05-22T07:54:02.950Z,7.30
2023-05-22T07:54:13.031Z,7.10
2023-05-22T07:54:23.088Z,6.70
2023-05-22T07:54:33.110Z,6.20
2023-05-22T07:54:45.205Z,5.80
2023-05-22T07:54:53.309Z,6.00
2023-05-22T07:55:03.383Z,5.70
2023-05-22T07:55:13.431Z,5.90
2023-05-22T07:55:23.508Z,5.90
2023-05-22T07:55:33.579Z,6.40
2023-05-22T07:55:43.609Z,6.50
2023-05-22T07:55:53.750Z,6.50
2023-05-22T07:56:03.810Z,6.50
2023-05-22T07:56:13.876Z,6.90
2023-05-22T07:56:23.961Z,6.70
2023-05-22T07:56:34.018Z,6.90
2023-05-22T07:56:44.055Z,6.40
2023-05-22T07:56:54.095Z,6.60
2023-05-22T07:57:04.212Z,6.10
2023-05-22T07:57:14.312Z,6.40
2023-05-22T07:57:24.433Z,6.20
2023-05-22T07:57:34.479Z,6.00
2023-05-22T07:57:44.545Z,5.60
2023-05-22T07:57:54.588Z,5.70
2023-05-22T07:58:04.669Z,5.50
2023-05-22T07:58:14.714Z,5.80
2023-05-22T07:58:24.748Z,5.40
2023-05-22T07:58:34.802Z,5.80
2023-05-22T07:58:44.849Z,5.90
2023-05-22T07:58:54.922Z,6.20
2023-05-22T07:59:04.957Z,6.10
2023-05-22T07:59:15.019Z,6.00
2023-05-22T07:59:25.121Z,5.80
2023-05-22T07:59:35.182Z,5.60
2023-05-22T07:59:45.215Z,5.30
2023-05-22T07:59:55.269Z,5.40
2023-05-22T08:00:05.329Z,5.50
2023-05-22T08:00:15.378Z,5.60
2023-05-22T08:00:25.504Z,5.60
2023-05-22T08:00:35.574Z,5.30
2023-05-22T08:00:45.641Z,5.30
2023-05-22T08:00:55.704Z,5.30
2023-05-22T08:01:07.370Z,5.20
2023-05-22T08:01:15.825Z,5.50
2023-05-22T08:01:25.855Z,5.40
2023-05-22T08:01:35.887Z,5.30
2023-05-22T08:01:45.942Z,5.00
2023-05-22T08:01:58.024Z,5.40
2023-05-22T08:02:06.071Z,5.90
2023-05-22T08:02:16.171Z,5.90
2023-05-22T08:02:26.304Z,5.70
2023-05-22T08:02:36.599Z,5.60
2023-05-22T08:02:46.668Z,5.50
2023-05-22T08:02:56.737Z,5.40
2023-05-22T08:03:06.826Z,5.30
2023-05-22T08:03:17.541Z,5.20
2023-05-22T08:03:27.191Z,5.00
2023-05-22T08:03:37.028Z,5.00
2023-05-22T08:03:47.108Z,5.30
2023-05-22T08:03:57.217Z,5.40
2023-05-22T08:04:07.394Z,5.50
2023-05-22T08:04:17.301Z,5.40
2023-05-22T08:04:27.342Z,5.60
2023-05-22T08:04:37.531Z,5.40
2023-05-22T08:04:47.470Z,5.50
2023-05-22T08:04:57.581Z,5.70
2023-05-22T08:05:07.730Z,6.00
2023-05-22T08:05:17.792Z,5.80
2023-05-22T08:05:27.838Z,5.60
2023-05-22T08:05:37.898Z,5.60
2023-05-22T08:05:48.256Z,5.70
2023-05-22T08:05:57.970Z,5.60
2023-05-22T08:06:08.004Z,5.40
2023-05-22T08:06:18.104Z,5.10
2023-05-22T08:06:28.142Z,4.80
2023-05-22T08:06:38.240Z,4.90
2023-05-22T08:06:48.303Z,5.20
2023-05-22T08:06:58.411Z,5.10
2023-05-22T08:07:08.474Z,5.30
2023-05-22T08:07:18.557Z,5.40
2023-05-22T08:07:28.596Z,5.40
2023-05-22T08:07:38.660Z,5.20
2023-05-22T08:07:48.740Z,4.90
2023-05-22T08:07:58.778Z,4.90
2023-05-22T08:08:08.815Z,4.80
2023-05-22T08:08:18.858Z,4.60
2023-05-22T08:08:31.666Z,4.90
2023-05-22T08:08:38.949Z,4.70
2023-05-22T08:08:49.007Z,4.90
2023-05-22T08:08:59.059Z,4.80
2023-05-22T08:09:09.110Z,5.00
2023-05-22T08:09:19.154Z,5.10
2023-05-22T08:09:29.222Z,4.80
2023-05-22T08:09:39.256Z,5.00
2023-05-22T08:09:49.330Z,5.20
2023-05-22T08:09:59.394Z,5.30
2023-05-22T08:10:09.477Z,5.20
2023-05-22T08:10:19.560Z,5.40
2023-05-22T08:10:41.728Z,5.20
2023-05-22T08:11:02.857Z,5.60
2023-05-22T08:11:04.140Z,5.50
2023-05-22T08:11:11.705Z,5.30
2023-05-22T08:11:21.759Z,5.60
2023-05-22T08:11:31.810Z,5.80
2023-05-22T08:11:41.836Z,6.10
2023-05-22T08:11:51.893Z,5.70
2023-05-22T08:12:01.959Z,5.70
2023-05-22T08:12:11.986Z,5.70
2023-05-22T08:12:22.048Z,5.30
2023-05-22T08:12:32.096Z,5.70
2023-05-22T08:12:42.167Z,5.60
2023-05-22T08:12:52.205Z,6.70
2023-05-22T08:13:02.256Z,7.10
2023-05-22T08:13:12.305Z,7.60
2023-05-22T08:13:22.349Z,7.10
2023-05-22T08:13:32.402Z,6.50
2023-05-22T08:13:42.424Z,6.30
2023-05-22T08:13:52.503Z,5.80
2023-05-22T08:14:02.531Z,5.90
2023-05-22T08:14:12.626Z,5.80
2023-05-22T08:14:22.693Z,6.10
2023-05-22T08:14:32.754Z,5.90
2023-05-22T08:14:42.860Z,5.70
2023-05-22T08:14:52.906Z,5.90
2023-05-22T08:15:02.920Z,5.80
2023-05-22T08:15:12.963Z,5.80
2023-05-22T08:15:23.002Z,5.50
2023-05-22T08:15:33.045Z,5.70
2023-05-22T08:15:43.095Z,5.90
2023-05-22T08:16:00.602Z,5.90
2023-05-22T08:16:04.097Z,6.00
2023-05-22T08:16:14.150Z,5.90
2023-05-22T08:16:24.348Z,6.10
2023-05-22T08:16:34.394Z,6.10
2023-05-22T08:16:44.465Z,6.00
2023-05-22T08:16:54.553Z,5.70
2023-05-22T08:17:04.725Z,5.70
2023-05-22T08:17:14.888Z,5.50
2023-05-22T08:17:24.972Z,5.60
2023-05-22T08:17:34.921Z,5.30
2023-05-22T08:17:44.974Z,5.60
2023-05-22T08:17:55.112Z,5.50
2023-05-22T08:18:05.189Z,5.60
2023-05-22T08:18:15.305Z,5.70
2023-05-22T08:18:25.339Z,6.10
2023-05-22T08:18:35.388Z,6.40
2023-05-22T08:18:45.464Z,6.80
2023-05-22T08:18:55.549Z,7.00
2023-05-22T08:19:05.763Z,7.20
2023-05-22T08:19:15.875Z,6.70
2023-05-22T08:19:25.917Z,6.60
2023-05-22T08:19:36.148Z,6.50
2023-05-22T08:19:46.191Z,6.50
2023-05-22T08:19:56.147Z,6.00
2023-05-22T08:20:06.255Z,5.60
2023-05-22T08:20:16.382Z,5.60
2023-05-22T08:20:26.650Z,5.80
2023-05-22T08:20:36.600Z,5.90
2023-05-22T08:20:46.656Z,5.90
2023-05-22T08:20:56.739Z,6.10
2023-05-22T08:21:06.791Z,6.50
2023-05-22T08:21:16.854Z,6.50
2023-05-22T08:21:26.955Z,6.20
2023-05-22T08:21:36.981Z,6.30
2023-05-22T08:21:47.097Z,6.00
2023-05-22T08:21:57.189Z,6.00
2023-05-22T08:22:07.288Z,5.80
2023-05-22T08:22:17.425Z,5.90
2023-05-22T08:22:27.516Z,6.30
2023-05-22T08:22:37.677Z,5.70
2023-05-22T08:22:47.680Z,5.40
2023-05-22T08:22:57.739Z,5.00
2023-05-22T08:23:07.769Z,5.20
2023-05-22T08:23:17.901Z,5.30
2023-05-22T08:23:28.013Z,5.30
2023-05-22T08:23:38.076Z,5.50
2023-05-22T08:23:48.138Z,5.60
2023-05-22T08:23:58.191Z,5.70
2023-05-22T08:24:08.276Z,5.80
2023-05-22T08:24:18.335Z,5.30
2023-05-22T08:24:28.406Z,5.20
2023-05-22T08:24:38.469Z,4.90
2023-05-22T08:24:48.514Z,5.30
2023-05-22T08:24:58.556Z,5.20
2023-05-22T08:25:08.581Z,5.30
2023-05-22T08:25:18.667Z,5.60
2023-05-22T08:25:28.711Z,5.70
2023-05-22T08:25:38.747Z,5.80
2023-05-22T08:25:48.799Z,5.30
2023-05-22T08:25:58.870Z,5.50
2023-05-22T08:26:08.909Z,5.40
2023-05-22T08:26:18.977Z,5.50
2023-05-22T08:26:30.046Z,5.30
2023-05-22T08:26:39.052Z,5.10
2023-05-22T08:26:49.114Z,5.20
2023-05-22T08:26:59.162Z,5.20
2023-05-22T08:27:09.203Z,5.40
2023-05-22T08:27:19.228Z,5.10
2023-05-22T08:27:29.270Z,5.00
2023-05-22T08:27:39.304Z,4.80
2023-05-22T08:27:49.341Z,5.00
2023-05-22T08:27:59.370Z,5.00
2023-05-22T08:28:09.414Z,5.00
2023-05-22T08:28:19.475Z,5.10
2023-05-22T08:28:29.533Z,4.90
2023-05-22T08:28:39.544Z,5.20
2023-05-22T08:28:49.616Z,4.90
2023-05-22T08:28:59.672Z,5.20
2023-05-22T08:29:09.723Z,4.80
2023-05-22T08:29:19.789Z,5.20
2023-05-22T08:29:29.857Z,5.20
2023-05-22T08:29:39.919Z,5.40
2023-05-22T08:29:49.998Z,5.10
2023-05-22T08:30:00.056Z,4.90
2023-05-22T08:30:10.109Z,5.00
2023-05-22T08:30:20.159Z,5.00
2023-05-22T08:30:30.204Z,4.80
2023-05-22T08:30:40.466Z,4.80
2023-05-22T08:30:50.291Z,5.20
2023-05-22T08:31:00.260Z,5.60
2023-05-22T08:31:10.438Z,5.60
2023-05-22T08:31:20.517Z,5.30
2023-05-22T08:31:30.516Z,5.30
2023-05-22T08:31:40.596Z,5.20
2023-05-22T08:31:50.725Z,5.20
2023-05-22T08:32:00.859Z,4.90
2023-05-22T08:32:10.902Z,5.00
2023-05-22T08:32:20.990Z,4.90
2023-05-22T08:32:31.430Z,5.20
2023-05-22T08:32:41.143Z,4.80
2023-05-22T08:32:51.213Z,4.80
2023-05-22T08:33:01.330Z,4.50
2023-05-22T08:33:11.441Z,4.50
2023-05-22T08:33:21.465Z,4.70
2023-05-22T08:33:31.573Z,4.90
2023-05-22T08:33:41.610Z,4.90
2023-05-22T08:33:51.657Z,4.70
2023-05-22T08:34:01.711Z,4.50
2023-05-22T08:34:11.759Z,4.70
2023-05-22T08:34:21.786Z,4.70
2023-05-22T08:34:31.842Z,4.80
2023-05-22T08:34:41.886Z,4.90
2023-05-22T08:34:51.916Z,5.10
2023-05-22T08:35:01.953Z,5.30
2023-05-22T08:35:12.008Z,5.10
2023-05-22T08:35:22.034Z,4.80
2023-05-22T08:35:32.125Z,4.60
2023-05-22T08:35:42.164Z,4.50
2023-05-22T08:35:52.216Z,4.40
2023-05-22T08:36:02.286Z,4.60
2023-05-22T08:36:12.305Z,4.80
2023-05-22T08:36:22.349Z,5.00
2023-05-22T08:36:32.404Z,4.80
2023-05-22T08:36:42.468Z,4.70
2023-05-22T08:36:52.530Z,4.90
2023-05-22T08:37:02.590Z,5.20
2023-05-22T08:37:12.653Z,5.20
2023-05-22T08:37:22.709Z,5.00
2023-05-22T08:37:32.815Z,5.30
2023-05-22T08:37:42.930Z,5.80
2023-05-22T08:37:53.051Z,12.00
2023-05-22T08:38:03.177Z,83.60
2023-05-22T08:38:13.278Z,94.70
2023-05-22T08:38:23.353Z,190.70
2023-05-22T08:38:33.451Z,245.80
2023-05-22T08:38:43.538Z,402.80
2023-05-22T08:38:53.643Z,423.60
2023-05-22T08:39:03.786Z,401.40
2023-05-22T08:39:13.851Z,296.50
2023-05-22T08:39:23.955Z,246.20
2023-05-22T08:39:34.072Z,168.70
2023-05-22T08:39:44.143Z,149.00
2023-05-22T08:39:54.237Z,112.90
2023-05-22T08:40:04.341Z,118.20
2023-05-22T08:40:14.417Z,234.60
2023-05-22T08:40:24.630Z,314.40
2023-05-22T08:40:34.641Z,539.70
2023-05-22T08:40:46.352Z,608.60
2023-05-22T08:40:54.743Z,661.20
2023-05-22T08:41:04.832Z,634.60
2023-05-22T08:41:14.905Z,676.50
2023-05-22T08:41:24.983Z,755.80
2023-05-22T08:41:35.064Z,760.80
2023-05-22T08:41:45.146Z,748.20
2023-05-22T08:41:55.277Z,684.80
2023-05-22T08:42:05.350Z,606.20
2023-05-22T08:42:15.430Z,381.90
2023-05-22T08:42:25.534Z,208.70
2023-05-22T08:42:35.611Z,46.20
2023-05-22T08:42:45.683Z,17.00
2023-05-22T08:42:55.796Z,12.00
2023-05-22T08:43:05.861Z,9.40
2023-05-22T08:43:15.965Z,7.50
2023-05-22T08:43:26.006Z,6.40
2023-05-22T08:43:36.070Z,5.80
2023-05-22T08:43:46.136Z,5.30
2023-05-22T08:43:56.209Z,5.20
2023-05-22T08:44:06.273Z,5.00
2023-05-22T08:44:16.338Z,5.10
2023-05-22T08:44:26.391Z,5.30
2023-05-22T08:44:36.498Z,5.30
2023-05-22T08:44:46.480Z,5.20
2023-05-22T08:44:56.563Z,5.10
2023-05-22T08:45:06.612Z,5.10
2023-05-22T08:45:16.679Z,4.60
2023-05-22T08:45:26.724Z,4.30
2023-05-22T08:45:36.780Z,4.20
2023-05-22T08:45:46.820Z,4.50
2023-05-22T08:45:56.884Z,4.80
2023-05-22T08:46:06.904Z,4.70
2023-05-22T08:46:16.992Z,4.60
2023-05-22T08:46:27.098Z,4.30
2023-05-22T08:46:37.156Z,4.50
2023-05-22T08:46:47.380Z,4.30
2023-05-22T08:46:57.292Z,5.20
2023-05-22T08:47:07.451Z,5.30
2023-05-22T08:47:17.605Z,5.60
2023-05-22T08:47:27.676Z,5.00
2023-05-22T08:47:37.756Z,4.60
2023-05-22T08:47:47.889Z,4.70
2023-05-22T08:47:58.022Z,5.50
2023-05-22T08:48:08.154Z,6.20
2023-05-22T08:48:18.047Z,6.90
2023-05-22T08:48:28.104Z,6.60
2023-05-22T08:48:38.166Z,6.20
2023-05-22T08:48:48.242Z,5.80
2023-05-22T08:48:58.341Z,5.30
2023-05-22T08:49:08.373Z,5.30
2023-05-22T08:49:18.422Z,5.10
2023-05-22T08:49:28.472Z,5.40
2023-05-22T08:49:38.597Z,5.20
2023-05-22T08:49:48.658Z,5.10
2023-05-22T08:49:58.732Z,5.10
2023-05-22T08:50:08.779Z,4.90
2023-05-22T08:50:18.817Z,5.20
2023-05-22T08:50:28.866Z,5.20
2023-05-22T08:50:39.099Z,5.50
2023-05-22T08:50:49.068Z,5.20
2023-05-22T08:50:59.162Z,5.00
2023-05-22T08:51:09.218Z,4.70
2023-05-22T08:51:19.324Z,4.80
2023-05-22T08:51:29.396Z,4.70
2023-05-22T08:51:39.448Z,4.70
2023-05-22T08:51:49.616Z,4.40
2023-05-22T08:51:59.680Z,4.60
2023-05-22T08:52:09.737Z,4.60
2023-05-22T08:52:19.784Z,4.90
2023-05-22T08:52:29.845Z,4.70
2023-05-22T08:52:39.897Z,4.60
2023-05-22T08:52:49.974Z,4.70
2023-05-22T08:53:00.059Z,4.90
2023-05-22T08:53:10.106Z,4.80
2023-05-22T08:53:20.210Z,4.50
2023-05-22T08:53:30.265Z,4.30
2023-05-22T08:53:40.323Z,4.50
2023-05-22T08:53:50.359Z,4.40
2023-05-22T08:54:00.400Z,4.50
2023-05-22T08:54:10.457Z,4.50
2023-05-22T08:54:20.509Z,4.60
2023-05-22T08:54:30.554Z,4.70
2023-05-22T08:54:40.601Z,4.60
2023-05-22T08:54:50.644Z,4.80
2023-05-22T08:55:00.733Z,4.80
2023-05-22T08:55:10.776Z,4.60
2023-05-22T08:55:20.841Z,4.40
2023-05-22T08:55:30.960Z,4.40
2023-05-22T08:55:41.019Z,4.30
2023-05-22T08:55:51.075Z,4.60
2023-05-22T08:56:01.141Z,4.50
2023-05-22T08:56:11.215Z,4.80
2023-05-22T08:56:21.290Z,4.70
2023-05-22T08:56:32.143Z,4.70
2023-05-22T08:56:52.894Z,4.30
2023-05-22T08:56:56.812Z,4.30
2023-05-22T08:57:03.449Z,4.20
2023-05-22T08:57:13.506Z,4.10
2023-05-22T08:57:23.537Z,4.00
2023-05-22T08:57:33.581Z,4.30
2023-05-22T08:57:43.616Z,4.40
2023-05-22T08:57:53.684Z,4.40
2023-05-22T08:58:03.722Z,4.30
2023-05-22T08:58:13.765Z,4.50
2023-05-22T08:58:23.875Z,4.60
2023-05-22T08:58:33.919Z,4.60
2023-05-22T08:58:44.005Z,4.70
2023-05-22T08:58:54.132Z,4.80
2023-05-22T08:59:04.180Z,4.60
2023-05-22T08:59:14.228Z,4.20
2023-05-22T08:59:24.280Z,4.10
2023-05-22T08:59:34.317Z,4.00
2023-05-22T08:59:44.358Z,4.10
2023-05-22T08:59:54.446Z,4.20
2023-05-22T09:00:04.502Z,4.20
2023-05-22T09:00:14.592Z,4.40
2023-05-22T09:00:24.688Z,4.20
2023-05-22T09:00:34.736Z,4.30
2023-05-22T09:00:44.789Z,4.40
2023-05-22T09:00:54.868Z,4.50
2023-05-22T09:01:04.987Z,4.70
2023-05-22T09:01:15.103Z,4.50
2023-05-22T09:01:25.168Z,5.00
2023-05-22T09:01:35.321Z,4.90
2023-05-22T09:01:45.378Z,4.90
2023-05-22T09:01:55.401Z,4.50
2023-05-22T09:02:06.803Z,4.40
2023-05-22T09:02:15.474Z,4.60
2023-05-22T09:02:25.538Z,4.90
2023-05-22T09:02:35.575Z,5.20
2023-05-22T09:02:45.671Z,5.30
2023-05-22T09:02:56.011Z,5.10
2023-05-22T09:03:05.827Z,4.80
2023-05-22T09:03:16.115Z,4.70
2023-05-22T09:03:26.232Z,4.30
2023-05-22T09:03:36.205Z,4.30
2023-05-22T09:03:46.266Z,4.50
2023-05-22T09:03:56.314Z,4.90
2023-05-22T09:04:06.463Z,5.00
2023-05-22T09:04:16.376Z,4.80
2023-05-22T09:04:26.408Z,4.90
2023-05-22T09:04:36.494Z,4.80
2023-05-22T09:04:46.604Z,4.60
2023-05-22T09:04:56.629Z,4.60
2023-05-22T09:05:06.700Z,4.30
2023-05-22T09:05:16.749Z,4.20
2023-05-22T09:05:26.981Z,4.00
2023-05-22T09:05:36.867Z,4.10
2023-05-22T09:05:46.925Z,4.20
2023-05-22T09:05:57.012Z,4.10
2023-05-22T09:06:07.105Z,4.00
2023-05-22T09:06:17.158Z,4.40
2023-05-22T09:06:27.213Z,4.30
2023-05-22T09:06:37.249Z,4.40
2023-05-22T09:06:47.309Z,4.20
2023-05-22T09:06:57.347Z,4.50
2023-05-22T09:07:07.397Z,4.40
2023-05-22T09:07:17.429Z,4.20
2023-05-22T09:07:27.477Z,3.90
2023-05-22T09:07:37.528Z,3.80
2023-05-22T09:07:47.555Z,3.90
2023-05-22T09:08:02.506Z,3.80
2023-05-22T09:08:19.666Z,3.80
2023-05-22T09:08:20.967Z,4.60
2023-05-22T09:08:29.607Z,4.80
2023-05-22T09:08:39.651Z,5.00
2023-05-22T09:08:51.489Z,4.20
2023-05-22T09:08:59.819Z,4.60
2023-05-22T09:09:09.842Z,4.30
2023-05-22T09:09:19.989Z,4.50
2023-05-22T09:09:30.041Z,4.10
2023-05-22T09:09:40.137Z,4.50
2023-05-22T09:09:50.166Z,4.20
2023-05-22T09:10:00.235Z,4.40
2023-05-22T09:10:10.250Z,4.30
2023-05-22T09:10:20.301Z,4.60
2023-05-22T09:10:30.391Z,4.70
2023-05-22T09:10:40.683Z,4.90
2023-05-22T09:10:50.516Z,4.60
2023-05-22T09:11:00.563Z,4.80
2023-05-22T09:11:10.591Z,4.20
2023-05-22T09:11:20.632Z,4.40
2023-05-22T09:11:30.682Z,3.70
2023-05-22T09:11:40.721Z,4.10
2023-05-22T09:11:50.766Z,4.30
2023-05-22T09:12:00.786Z,4.20